Time;durP1;ratioP1;P1;durP2;ratioP2;P2;SDS_P1;SDS_P2;PMS_P1;PMS_P2;Temp;Humidity;BMP_temperature;BMP_pressure;BME280_temperature;BME280_humidity;BME280_pressure;Samples;Min_cycle;Max_cycle;Signal;HPM_P1;HPM_P2
2022/03/23 00:01:56;;;;;;;;;;;8.20;99.90;;;;;;5010949;28;19936;-74
2022/03/23 00:04:22;;;;;;;;;;;8.10;99.90;;;;;;5004833;28;19925;-74
2022/03/23 00:06:49;;;;;;;;;;;8.10;99.90;;;;;;5005815;28;20332;-73
2022/03/23 00:09:15;;;;;;;;;;;8.10;99.90;;;;;;5016143;28;20284;-74
2022/03/23 00:11:42;;;;;;;;;;;8.10;99.90;;;;;;5007392;28;19930;-74
2022/03/23 00:14:09;;;;;;;;;;;8.00;99.90;;;;;;5027041;28;19925;-78
2022/03/23 00:16:36;;;;;;;;;;;8.00;99.90;;;;;;5025688;28;19932;-77
2022/03/23 00:19:02;;;;;;;;;;;8.00;99.90;;;;;;5028151;28;19929;-75
2022/03/23 00:21:29;;;;;;;;;;;7.90;99.90;;;;;;5026629;28;19933;-75
2022/03/23 00:23:56;;;;;;;;;;;7.90;99.90;;;;;;5031552;28;19932;-73
2022/03/23 00:26:23;;;;;;;;;;;7.90;99.90;;;;;;5018870;28;19931;-74
2022/03/23 00:28:49;;;;;;;;;;;7.80;99.90;;;;;;5027391;28;19929;-74
2022/03/23 00:31:16;;;;;;;;;;;7.80;99.90;;;;;;5030844;28;20373;-75
2022/03/23 00:33:43;;;;;;;;;;;7.70;99.90;;;;;;5023224;28;19932;-75
2022/03/23 00:36:11;;;;;;;;;;;7.60;99.90;;;;;;5017384;28;19929;-77
2022/03/23 00:38:38;;;;;;;;;;;7.60;99.90;;;;;;5012138;28;19925;-75
2022/03/23 00:41:04;;;;;;;;;;;7.60;99.90;;;;;;5019041;28;19948;-74
2022/03/23 00:43:31;;;;;;;;;;;7.60;99.90;;;;;;5029271;28;19925;-75
2022/03/23 00:45:58;;;;;;;;;;;7.80;99.90;;;;;;5019052;28;19925;-74
2022/03/23 00:48:24;;;;;;;;;;;7.60;99.90;;;;;;5025684;28;19925;-74
2022/03/23 00:50:51;;;;;;;;;;;7.60;99.90;;;;;;5028939;28;20725;-74
2022/03/23 00:53:18;;;;;;;;;;;7.50;99.90;;;;;;5010022;28;20361;-74
2022/03/23 00:55:44;;;;;;;;;;;7.50;99.90;;;;;;5008039;28;19928;-74
2022/03/23 00:58:11;;;;;;;;;;;7.40;99.90;;;;;;5025234;28;20320;-77
2022/03/23 01:00:37;;;;;;;;;;;7.40;99.90;;;;;;5016039;28;19940;-76
2022/03/23 01:03:04;;;;;;;;;;;7.40;99.90;;;;;;5016684;28;19926;-74
2022/03/23 01:05:31;;;;;;;;;;;7.40;99.90;;;;;;5020198;28;19972;-75
2022/03/23 01:07:58;;;;;;;;;;;7.40;99.90;;;;;;5027445;28;19929;-75
2022/03/23 01:10:24;;;;;;;;;;;7.50;99.90;;;;;;5014301;28;19932;-74
2022/03/23 01:12:51;;;;;;;;;;;7.40;99.90;;;;;;5028269;28;19990;-74
2022/03/23 01:15:17;;;;;;;;;;;7.30;99.90;;;;;;5014365;28;19932;-75
2022/03/23 01:17:44;;;;;;;;;;;7.20;99.90;;;;;;5021556;28;19932;-74
2022/03/23 01:20:10;;;;;;;;;;;7.00;99.90;;;;;;5010020;28;19929;-77
2022/03/23 01:22:37;;;;;;;;;;;6.90;99.90;;;;;;5026854;28;19926;-76
2022/03/23 01:25:03;;;;;;;;;;;6.80;99.90;;;;;;5028166;28;19926;-74
2022/03/23 01:27:30;;;;;;;;;;;6.80;99.90;;;;;;5002107;28;19937;-74
2022/03/23 01:29:56;;;;;;;;;;;6.70;99.90;;;;;;5029729;28;19932;-73
2022/03/23 01:32:23;;;;;;;;;;;6.70;99.90;;;;;;5027402;28;19925;-75
2022/03/23 01:34:50;;;;;;;;;;;6.80;99.90;;;;;;5018100;28;19929;-74
2022/03/23 01:37:16;;;;;;;;;;;6.70;99.90;;;;;;5024683;28;19929;-74
2022/03/23 01:39:43;;;;;;;;;;;6.70;99.90;;;;;;5027888;28;19932;-74
2022/03/23 01:42:09;;;;;;;;;;;6.70;99.90;;;;;;5009383;28;19936;-74
2022/03/23 01:44:36;;;;;;;;;;;6.60;99.90;;;;;;5007601;28;19933;-74
2022/03/23 01:47:02;;;;;;;;;;;6.60;99.90;;;;;;5030176;28;19932;-74
2022/03/23 01:49:29;;;;;;;;;;;6.60;99.90;;;;;;5026251;28;19932;-73
2022/03/23 01:51:55;;;;;;;;;;;6.60;99.90;;;;;;5030341;28;19944;-74
2022/03/23 01:54:22;;;;;;;;;;;6.60;99.90;;;;;;5016607;28;19925;-75
2022/03/23 01:56:48;;;;;;;;;;;6.60;99.90;;;;;;5008934;28;19932;-74
2022/03/23 01:59:15;;;;;;;;;;;6.70;99.90;;;;;;5015666;28;19925;-77
2022/03/23 02:01:42;;;;;;;;;;;6.60;99.90;;;;;;5018793;28;19929;-75
2022/03/23 02:04:09;;;;;;;;;;;6.60;99.90;;;;;;5017198;28;19925;-74
2022/03/23 02:06:35;;;;;;;;;;;6.60;99.90;;;;;;5009714;28;20312;-74
2022/03/23 02:09:02;;;;;;;;;;;6.60;99.90;;;;;;5030465;28;20360;-74
2022/03/23 02:11:29;;;;;;;;;;;6.60;99.90;;;;;;5024462;28;20376;-74
2022/03/23 02:13:57;;;;;;;;;;;6.50;99.90;;;;;;5018882;28;19932;-75
2022/03/23 02:16:23;;;;;;;;;;;6.50;99.90;;;;;;5028534;28;19925;-74
2022/03/23 02:18:50;;;;;;;;;;;6.50;99.90;;;;;;5011161;28;19936;-74
2022/03/23 02:21:16;;;;;;;;;;;6.50;99.90;;;;;;5028276;28;19936;-77
2022/03/23 02:23:43;;;;;;;;;;;6.50;99.90;;;;;;5023304;28;19932;-75
2022/03/23 02:26:09;;;;;;;;;;;6.40;99.90;;;;;;5030363;28;19925;-75
2022/03/23 02:28:36;;;;;;;;;;;6.50;99.90;;;;;;5018784;28;19948;-74
2022/03/23 02:31:02;;;;;;;;;;;6.40;99.90;;;;;;5010621;28;19926;-74
2022/03/23 02:33:29;;;;;;;;;;;6.40;99.90;;;;;;5015971;28;19926;-74
2022/03/23 02:35:55;;;;;;;;;;;6.40;99.90;;;;;;5024892;28;19925;-74
2022/03/23 02:38:22;;;;;;;;;;;6.40;99.90;;;;;;5026159;28;19925;-74
2022/03/23 02:40:49;;;;;;;;;;;6.40;99.90;;;;;;5029359;28;20016;-75
2022/03/23 02:43:15;;;;;;;;;;;6.30;99.90;;;;;;5015740;28;19925;-76
2022/03/23 02:45:42;;;;;;;;;;;6.40;99.90;;;;;;5015519;28;19926;-75
2022/03/23 02:48:09;;;;;;;;;;;6.40;99.90;;;;;;5030446;28;19929;-72
2022/03/23 02:50:35;;;;;;;;;;;6.40;99.90;;;;;;5029796;28;20711;-74
2022/03/23 03:03:59;;;;;;;;;;;6.30;99.90;;;;;;5029856;28;19925;-74
2022/03/23 03:06:25;;;;;;;;;;;6.30;99.90;;;;;;5032288;28;19983;-74
2022/03/23 03:08:52;;;;;;;;;;;6.30;99.90;;;;;;5028517;28;20388;-74
2022/03/23 03:11:18;;;;;;;;;;;6.10;99.90;;;;;;5024677;28;20395;-77
2022/03/23 03:13:45;;;;;;;;;;;6.10;99.90;;;;;;5019363;28;19926;-73
2022/03/23 03:16:11;;;;;;;;;;;6.10;99.90;;;;;;5005299;28;19929;-74
2022/03/23 03:18:38;;;;;;;;;;;6.00;99.90;;;;;;5013748;28;19929;-74
2022/03/23 03:21:04;;;;;;;;;;;6.00;99.90;;;;;;5021358;28;19925;-74
2022/03/23 03:23:31;;;;;;;;;;;6.00;99.90;;;;;;5033994;28;19929;-74
2022/03/23 03:25:58;;;;;;;;;;;6.00;99.90;;;;;;5013714;28;20375;-75
2022/03/23 03:28:24;;;;;;;;;;;6.10;99.90;;;;;;4999435;28;19925;-75
2022/03/23 03:30:51;;;;;;;;;;;6.00;99.90;;;;;;5028699;28;20297;-75
2022/03/23 03:33:17;;;;;;;;;;;6.00;99.90;;;;;;5021535;28;19958;-75
2022/03/23 03:35:44;;;;;;;;;;;5.90;99.90;;;;;;5024839;28;19932;-74
2022/03/23 03:38:10;;;;;;;;;;;5.90;99.90;;;;;;5018872;28;19929;-74
2022/03/23 03:40:37;;;;;;;;;;;5.90;99.90;;;;;;5019169;28;19925;-74
2022/03/23 03:43:03;;;;;;;;;;;5.90;99.90;;;;;;5033867;28;19932;-74
2022/03/23 03:45:30;;;;;;;;;;;5.90;99.90;;;;;;5026960;28;20047;-75
2022/03/23 03:47:57;;;;;;;;;;;5.80;99.90;;;;;;5031010;28;19925;-74
2022/03/23 03:50:23;;;;;;;;;;;5.80;99.90;;;;;;5012733;28;19929;-75
2022/03/23 03:52:50;;;;;;;;;;;5.70;99.90;;;;;;5030560;28;19932;-74
2022/03/23 03:55:16;;;;;;;;;;;5.70;99.90;;;;;;5030826;28;19931;-74
2022/03/23 03:57:43;;;;;;;;;;;5.60;99.90;;;;;;5033156;28;19931;-74
2022/03/23 04:00:11;;;;;;;;;;;5.60;99.90;;;;;;5013588;28;19929;-73
2022/03/23 04:02:37;;;;;;;;;;;5.60;99.90;;;;;;4999884;28;19925;-74
2022/03/23 04:05:04;;;;;;;;;;;5.60;99.90;;;;;;5007233;28;19925;-74
2022/03/23 04:07:30;;;;;;;;;;;5.60;99.90;;;;;;5024558;28;19933;-74
2022/03/23 04:09:57;;;;;;;;;;;5.50;99.90;;;;;;5028486;28;20004;-74
2022/03/23 04:12:24;;;;;;;;;;;5.60;99.90;;;;;;5026035;28;19948;-77
2022/03/23 04:14:51;;;;;;;;;;;5.60;99.90;;;;;;5026336;28;19932;-74
2022/03/23 04:17:17;;;;;;;;;;;5.50;99.90;;;;;;5028042;28;19929;-74
2022/03/23 04:19:44;;;;;;;;;;;5.50;99.90;;;;;;5031076;28;19932;-74
2022/03/23 04:22:12;;;;;;;;;;;5.50;99.90;;;;;;5022008;28;19928;-73
2022/03/23 04:24:39;;;;;;;;;;;5.50;99.90;;;;;;5032073;28;19955;-74
2022/03/23 04:27:06;;;;;;;;;;;5.50;99.90;;;;;;5030838;28;19932;-74
2022/03/23 04:29:32;;;;;;;;;;;5.50;99.90;;;;;;5028251;28;19975;-74
2022/03/23 04:31:59;;;;;;;;;;;5.40;99.90;;;;;;5030877;28;19932;-74
2022/03/23 04:34:25;;;;;;;;;;;5.40;99.90;;;;;;5030242;28;19929;-77
2022/03/23 04:36:52;;;;;;;;;;;5.40;99.90;;;;;;5021280;28;19935;-74
2022/03/23 04:39:19;;;;;;;;;;;5.40;99.90;;;;;;5022946;28;20008;-74
2022/03/23 04:41:45;;;;;;;;;;;5.30;99.90;;;;;;5021991;28;19921;-75
2022/03/23 04:44:12;;;;;;;;;;;5.30;99.90;;;;;;5034123;28;20409;-76
2022/03/23 04:46:39;;;;;;;;;;;5.30;99.90;;;;;;5007190;28;20336;-74
2022/03/23 04:49:05;;;;;;;;;;;5.30;99.90;;;;;;5016332;28;19980;-75
2022/03/23 04:51:32;;;;;;;;;;;5.30;99.90;;;;;;5026342;28;19929;-75
2022/03/23 04:54:00;;;;;;;;;;;5.30;99.90;;;;;;5022461;28;19925;-75
2022/03/23 04:56:26;;;;;;;;;;;5.30;99.90;;;;;;5024842;28;20000;-78
2022/03/23 04:58:54;;;;;;;;;;;5.30;99.90;;;;;;5031849;28;19925;-75
2022/03/23 05:01:21;;;;;;;;;;;5.30;99.90;;;;;;5020451;28;19925;-76
2022/03/23 05:03:47;;;;;;;;;;;5.30;99.90;;;;;;5015816;28;19932;-74
2022/03/23 05:06:14;;;;;;;;;;;5.30;99.90;;;;;;5027190;28;19925;-75
2022/03/23 05:08:40;;;;;;;;;;;5.30;99.90;;;;;;5023884;28;19931;-75
2022/03/23 05:11:07;;;;;;;;;;;5.20;99.90;;;;;;5027169;28;19936;-75
2022/03/23 05:13:34;;;;;;;;;;;5.20;99.90;;;;;;5009851;28;19925;-75
2022/03/23 05:16:00;;;;;;;;;;;5.20;99.90;;;;;;5026714;28;19925;-75
2022/03/23 05:18:28;;;;;;;;;;;5.20;99.90;;;;;;5021908;28;19933;-78
2022/03/23 05:20:54;;;;;;;;;;;5.20;99.90;;;;;;5003734;28;19926;-75
2022/03/23 05:23:21;;;;;;;;;;;5.30;99.90;;;;;;5030281;28;19951;-75
2022/03/23 05:25:47;;;;;;;;;;;5.30;99.90;;;;;;5028811;28;20624;-75
2022/03/23 05:28:14;;;;;;;;;;;5.30;99.90;;;;;;5006789;28;19948;-74
2022/03/23 05:30:40;;;;;;;;;;;5.30;99.90;;;;;;5030202;28;19924;-75
2022/03/23 05:33:07;;;;;;;;;;;5.30;99.90;;;;;;5007116;28;19972;-75
2022/03/23 05:35:34;;;;;;;;;;;5.30;99.90;;;;;;5012100;28;19948;-75
2022/03/23 05:38:00;;;;;;;;;;;5.40;99.90;;;;;;5023354;28;19925;-74
2022/03/23 05:40:27;;;;;;;;;;;5.40;99.90;;;;;;4999097;28;19933;-75
2022/03/23 05:42:53;;;;;;;;;;;5.30;99.90;;;;;;5003071;28;19925;-75
2022/03/23 05:45:20;;;;;;;;;;;5.30;99.90;;;;;;5026696;28;19925;-75
2022/03/23 05:47:48;;;;;;;;;;;5.30;99.90;;;;;;5018634;28;19932;-75
2022/03/23 05:50:15;;;;;;;;;;;5.40;99.90;;;;;;5017504;28;19925;-74
2022/03/23 05:52:41;;;;;;;;;;;5.30;99.90;;;;;;5027955;28;19926;-74
2022/03/23 05:55:08;;;;;;;;;;;5.40;99.90;;;;;;5025007;28;19948;-75
2022/03/23 05:57:35;;;;;;;;;;;5.40;99.90;;;;;;5028753;28;20364;-75
2022/03/23 06:00:01;;;;;;;;;;;5.40;99.90;;;;;;5026171;28;20379;-74
2022/03/23 06:02:28;;;;;;;;;;;5.50;99.90;;;;;;5018738;28;20360;-75
2022/03/23 06:04:54;;;;;;;;;;;5.60;99.90;;;;;;5023172;28;20295;-75
2022/03/23 06:07:21;;;;;;;;;;;5.70;99.90;;;;;;5033624;28;19948;-77
2022/03/23 06:09:47;;;;;;;;;;;5.80;99.90;;;;;;5013900;28;20292;-75
2022/03/23 06:12:14;;;;;;;;;;;5.90;99.90;;;;;;5007212;28;20296;-74
2022/03/23 06:14:43;;;;;;;;;;;6.10;99.90;;;;;;5025215;28;19925;-73
2022/03/23 06:17:09;;;;;;;;;;;6.20;99.90;;;;;;5015411;28;19925;-75
2022/03/23 06:19:36;;;;;;;;;;;6.40;99.90;;;;;;5028316;28;19932;-74
2022/03/23 06:22:02;;;;;;;;;;;6.50;99.90;;;;;;5028832;28;19952;-75
2022/03/23 06:24:29;;;;;;;;;;;6.70;99.90;;;;;;5018660;28;19925;-75
2022/03/23 06:26:55;;;;;;;;;;;6.90;99.90;;;;;;5022655;28;19925;-75
2022/03/23 06:29:22;;;;;;;;;;;7.00;99.90;;;;;;5000506;28;19940;-74
2022/03/23 06:31:48;;;;;;;;;;;7.20;99.90;;;;;;5006960;28;19975;-74
2022/03/23 06:34:15;;;;;;;;;;;7.30;99.90;;;;;;5031259;28;19925;-74
2022/03/23 06:36:41;;;;;;;;;;;7.50;99.90;;;;;;5020555;28;19925;-74
2022/03/23 06:39:08;;;;;;;;;;;7.60;99.90;;;;;;5021795;28;19933;-74
2022/03/23 06:41:34;;;;;;;;;;;7.80;99.90;;;;;;5031524;28;19933;-77
2022/03/23 06:44:01;;;;;;;;;;;8.00;99.90;;;;;;5023807;28;19925;-74
2022/03/23 06:46:28;;;;;;;;;;;8.10;99.90;;;;;;5014513;28;19940;-74
2022/03/23 06:48:54;;;;;;;;;;;8.20;99.90;;;;;;5015664;28;19922;-74
2022/03/23 06:51:21;;;;;;;;;;;8.30;99.90;;;;;;5001298;28;19926;-74
2022/03/23 06:53:47;;;;;;;;;;;8.40;99.90;;;;;;5012563;28;19934;-75
2022/03/23 06:56:14;;;;;;;;;;;8.60;99.90;;;;;;5016634;28;20399;-74
2022/03/23 06:58:41;;;;;;;;;;;8.80;99.90;;;;;;5017491;28;19980;-74
2022/03/23 07:01:07;;;;;;;;;;;8.90;99.90;;;;;;5014683;28;19944;-75
2022/03/23 07:03:34;;;;;;;;;;;9.00;99.90;;;;;;4998157;28;19926;-77
2022/03/23 07:06:00;;;;;;;;;;;9.00;99.90;;;;;;4995770;28;19926;-74
2022/03/23 07:11:11;;;;;;;;;;;9.20;99.90;;;;;;4999380;28;20336;-74
2022/03/23 07:13:38;;;;;;;;;;;9.40;99.90;;;;;;5019310;28;19925;-75
2022/03/23 07:16:04;;;;;;;;;;;9.70;99.90;;;;;;5013704;28;19948;-74
2022/03/23 07:18:31;;;;;;;;;;;9.90;99.90;;;;;;5015680;28;19932;-74
2022/03/23 07:20:57;;;;;;;;;;;10.00;99.90;;;;;;5013355;28;20677;-74
2022/03/23 07:23:24;;;;;;;;;;;10.20;99.90;;;;;;5010622;28;20308;-75
2022/03/23 07:25:50;;;;;;;;;;;10.20;99.90;;;;;;4992833;28;20284;-75
2022/03/23 07:28:17;;;;;;;;;;;10.30;99.90;;;;;;4994066;28;19926;-74
2022/03/23 07:30:44;;;;;;;;;;;10.40;99.90;;;;;;4994790;28;20304;-75
2022/03/23 07:33:10;;;;;;;;;;;10.50;99.60;;;;;;5012051;28;19973;-75
2022/03/23 07:35:37;;;;;;;;;;;10.60;99.90;;;;;;4998863;28;20012;-77
2022/03/23 07:38:03;;;;;;;;;;;10.70;99.90;;;;;;5014681;28;19930;-74
2022/03/23 07:40:30;;;;;;;;;;;10.80;99.80;;;;;;5001212;28;19932;-75
2022/03/23 07:42:57;;;;;;;;;;;11.00;99.90;;;;;;4997508;28;19927;-74
2022/03/23 07:45:24;;;;;;;;;;;11.20;99.90;;;;;;5016093;28;19929;-74
2022/03/23 07:47:50;;;;;;;;;;;11.20;99.60;;;;;;5006088;28;20361;-74
2022/03/23 07:50:17;;;;;;;;;;;11.40;98.70;;;;;;5003006;28;20280;-74
2022/03/23 07:52:43;;;;;;;;;;;11.50;99.40;;;;;;5004271;28;20392;-74
2022/03/23 07:55:10;;;;;;;;;;;11.50;98.40;;;;;;5018299;28;20395;-74
2022/03/23 07:57:36;;;;;;;;;;;11.50;99.30;;;;;;5016374;28;20895;-74
2022/03/23 08:00:03;;;;;;;;;;;11.80;99.80;;;;;;5018498;28;19929;-74
2022/03/23 08:02:30;;;;;;;;;;;11.90;98.50;;;;;;5020958;28;19925;-74
2022/03/23 08:04:56;;;;;;;;;;;12.00;97.90;;;;;;4999493;28;19933;-75
2022/03/23 08:07:23;;;;;;;;;;;12.10;97.00;;;;;;4999646;28;19925;-75
2022/03/23 08:09:49;;;;;;;;;;;12.20;95.90;;;;;;5002310;28;19933;-75
2022/03/23 08:12:17;;;;;;;;;;;12.40;97.90;;;;;;5028330;28;19925;-76
2022/03/23 08:14:43;;;;;;;;;;;12.50;97.50;;;;;;5015588;28;19930;-75
2022/03/23 08:17:10;;;;;;;;;;;12.50;97.20;;;;;;5019245;28;19933;-75
2022/03/23 08:19:36;;;;;;;;;;;12.60;95.20;;;;;;5002808;28;19927;-76
2022/03/23 08:22:03;;;;;;;;;;;12.80;95.30;;;;;;5021443;28;19929;-76
2022/03/23 08:24:30;;;;;;;;;;;12.90;95.30;;;;;;5023700;28;19925;-76
2022/03/23 08:26:56;;;;;;;;;;;13.10;95.60;;;;;;5015132;28;19926;-76
2022/03/23 08:29:23;;;;;;;;;;;13.20;95.00;;;;;;5005986;28;19933;-76
2022/03/23 08:31:50;;;;;;;;;;;13.30;95.40;;;;;;5005235;28;19925;-75
2022/03/23 08:34:16;;;;;;;;;;;13.40;93.20;;;;;;5006503;28;19964;-76
2022/03/23 08:36:43;;;;;;;;;;;13.40;93.00;;;;;;5020857;28;19925;-78
2022/03/23 08:39:09;;;;;;;;;;;13.60;93.50;;;;;;5007802;28;20365;-77
2022/03/23 08:41:36;;;;;;;;;;;13.70;92.90;;;;;;5001333;28;19932;-76
2022/03/23 08:44:02;;;;;;;;;;;13.80;91.90;;;;;;5016554;28;19921;-76
2022/03/23 08:46:29;;;;;;;;;;;13.90;91.80;;;;;;5023298;28;19925;-76
2022/03/23 08:48:55;;;;;;;;;;;14.10;91.40;;;;;;5019365;28;20281;-76
2022/03/23 08:51:22;;;;;;;;;;;14.10;87.60;;;;;;5023431;28;19932;-75
2022/03/23 08:53:49;;;;;;;;;;;14.30;90.10;;;;;;5030345;28;20357;-78
2022/03/23 08:56:15;;;;;;;;;;;14.40;90.40;;;;;;5022805;28;19932;-76
2022/03/23 08:58:47;;;;;;;;;;;14.60;88.40;;;;;;5006881;28;19925;-78
2022/03/23 09:01:14;;;;;;;;;;;14.60;82.70;;;;;;5014555;28;19940;-77
2022/03/23 09:03:40;;;;;;;;;;;14.80;86.70;;;;;;5017683;28;19925;-76
2022/03/23 09:06:07;;;;;;;;;;;14.90;87.60;;;;;;5018065;28;20288;-76
2022/03/23 09:08:33;;;;;;;;;;;15.10;84.20;;;;;;5015696;28;20345;-76
2022/03/23 09:11:00;;;;;;;;;;;15.10;83.50;;;;;;5020023;28;19926;-75
2022/03/23 09:13:27;;;;;;;;;;;15.10;80.20;;;;;;5002942;28;19932;-76
2022/03/23 09:15:53;;;;;;;;;;;15.10;75.90;;;;;;5019747;28;19925;-75
2022/03/23 09:18:20;;;;;;;;;;;15.20;79.00;;;;;;5027794;28;19931;-76
2022/03/23 09:20:46;;;;;;;;;;;15.30;79.40;;;;;;5009601;28;19936;-77
2022/03/23 09:23:13;;;;;;;;;;;15.40;78.80;;;;;;5030420;28;19925;-75
2022/03/23 09:25:40;;;;;;;;;;;15.50;79.70;;;;;;5020251;28;20472;-77
2022/03/23 09:28:06;;;;;;;;;;;15.60;75.10;;;;;;5023013;28;20432;-76
2022/03/23 09:30:33;;;;;;;;;;;15.70;75.80;;;;;;5018435;28;19925;-76
2022/03/23 09:33:00;;;;;;;;;;;15.70;74.50;;;;;;5019081;28;20315;-76
2022/03/23 09:35:27;;;;;;;;;;;15.70;69.20;;;;;;5017785;28;20042;-76
2022/03/23 09:37:56;;;;;;;;;;;15.50;68.70;;;;;;5030746;28;19944;-76
2022/03/23 09:40:24;;;;;;;;;;;15.60;66.00;;;;;;5012657;28;19932;-74
2022/03/23 09:42:50;;;;;;;;;;;15.60;67.00;;;;;;5024031;28;20340;-76
2022/03/23 09:45:29;;;;;;;;;;;15.70;67.60;;;;;;5028407;28;20280;-75
2022/03/23 09:47:56;;;;;;;;;;;15.90;67.60;;;;;;5026722;28;19925;-76
2022/03/23 09:50:23;;;;;;;;;;;16.00;64.70;;;;;;5027530;28;19929;-76
2022/03/23 09:52:49;;;;;;;;;;;16.00;64.60;;;;;;5027401;28;19925;-77
2022/03/23 09:55:16;;;;;;;;;;;16.20;63.20;;;;;;5021200;28;20373;-76
2022/03/23 09:57:42;;;;;;;;;;;16.10;57.20;;;;;;5030344;28;19925;-75
2022/03/23 10:00:09;;;;;;;;;;;16.10;57.20;;;;;;5011301;28;19921;-76
2022/03/23 10:02:36;;;;;;;;;;;16.20;60.10;;;;;;5025558;28;19925;-75
2022/03/23 10:05:03;;;;;;;;;;;16.30;57.60;;;;;;5017752;28;19925;-76
2022/03/23 10:07:29;;;;;;;;;;;16.40;56.30;;;;;;5026855;28;19925;-77
2022/03/23 10:09:56;;;;;;;;;;;16.50;58.40;;;;;;5020258;28;19925;-75
2022/03/23 10:12:22;;;;;;;;;;;16.50;56.20;;;;;;5026644;28;19925;-78
2022/03/23 10:14:49;;;;;;;;;;;16.50;56.50;;;;;;5014337;28;19925;-77
2022/03/23 10:17:16;;;;;;;;;;;16.60;52.50;;;;;;5027444;28;19929;-75
2022/03/23 10:19:42;;;;;;;;;;;16.60;55.50;;;;;;5017292;28;19937;-75
2022/03/23 10:22:09;;;;;;;;;;;16.70;55.60;;;;;;5030059;28;19973;-75
2022/03/23 10:24:35;;;;;;;;;;;16.70;53.80;;;;;;5029270;28;19936;-76
2022/03/23 10:27:02;;;;;;;;;;;16.90;54.20;;;;;;5022281;28;20032;-76
2022/03/23 10:29:31;;;;;;;;;;;16.80;48.70;;;;;;5019240;28;19925;-78
2022/03/23 10:31:57;;;;;;;;;;;16.80;49.30;;;;;;5027579;28;19930;-75
2022/03/23 10:34:24;;;;;;;;;;;16.80;51.70;;;;;;5015235;28;19926;-75
2022/03/23 10:36:51;;;;;;;;;;;16.90;50.40;;;;;;5028465;28;19937;-79
2022/03/23 10:39:18;;;;;;;;;;;17.10;52.20;;;;;;5025995;28;19926;-76
2022/03/23 10:41:45;;;;;;;;;;;17.20;48.70;;;;;;4997029;28;19926;-76
2022/03/23 10:44:11;;;;;;;;;;;17.20;49.20;;;;;;5007156;28;20542;-74
2022/03/23 10:46:38;;;;;;;;;;;17.30;47.50;;;;;;5014627;28;20303;-79
2022/03/23 10:49:06;;;;;;;;;;;17.30;48.50;;;;;;5010925;28;19929;-76
2022/03/23 10:51:32;;;;;;;;;;;17.40;49.80;;;;;;5023520;28;20012;-75
2022/03/23 10:53:59;;;;;;;;;;;17.50;50.50;;;;;;5010384;28;19933;-77
2022/03/23 10:56:25;;;;;;;;;;;17.40;46.80;;;;;;5021501;28;19940;-77
2022/03/23 10:58:52;;;;;;;;;;;17.50;47.00;;;;;;5021327;28;19932;-79
2022/03/23 11:01:18;;;;;;;;;;;17.50;45.00;;;;;;5018117;28;19932;-77
2022/03/23 11:03:48;;;;;;;;;;;17.40;46.50;;;;;;5020339;28;19934;-78
2022/03/23 11:06:14;;;;;;;;;;;17.50;47.20;;;;;;5026628;28;19971;-78
2022/03/23 11:08:41;;;;;;;;;;;17.50;45.20;;;;;;5009385;28;19925;-78
2022/03/23 11:16:36;;;;;;;;;;;17.60;45.20;;;;;;5019493;28;19929;-80
2022/03/23 11:19:03;;;;;;;;;;;17.50;44.60;;;;;;5027926;28;20364;-77
2022/03/23 11:21:29;;;;;;;;;;;17.60;45.30;;;;;;5017027;28;19947;-77
2022/03/23 11:23:56;;;;;;;;;;;17.60;42.80;;;;;;4997998;28;19929;-79
2022/03/23 11:26:22;;;;;;;;;;;17.70;44.10;;;;;;4999122;28;20004;-77
2022/03/23 11:28:49;;;;;;;;;;;17.70;43.60;;;;;;5015657;28;19936;-77
2022/03/23 11:31:16;;;;;;;;;;;17.70;42.00;;;;;;5016870;28;20008;-77
2022/03/23 11:33:44;;;;;;;;;;;17.80;44.10;;;;;;5015941;28;19965;-77
2022/03/23 11:36:11;;;;;;;;;;;17.90;42.80;;;;;;5020405;28;19933;-76
2022/03/23 11:38:38;;;;;;;;;;;17.90;41.80;;;;;;5020757;28;19929;-76
2022/03/23 11:41:04;;;;;;;;;;;17.90;43.30;;;;;;5002881;28;19968;-77
2022/03/23 11:43:33;;;;;;;;;;;17.80;39.90;;;;;;5021876;28;19932;-79
2022/03/23 11:46:00;;;;;;;;;;;18.00;42.70;;;;;;5020106;28;19933;-76
2022/03/23 11:48:26;;;;;;;;;;;18.10;43.30;;;;;;5024179;28;19936;-77
2022/03/23 11:50:55;;;;;;;;;;;18.10;41.70;;;;;;5019752;28;19925;-77
2022/03/23 11:53:21;;;;;;;;;;;18.20;43.10;;;;;;5004212;28;19925;-79
2022/03/23 11:55:48;;;;;;;;;;;18.20;45.50;;;;;;5027187;28;19933;-76
2022/03/23 11:58:18;;;;;;;;;;;18.30;44.60;;;;;;5028782;28;20021;-76
2022/03/23 12:00:45;;;;;;;;;;;18.40;45.80;;;;;;5022544;28;19972;-77
2022/03/23 12:03:11;;;;;;;;;;;18.30;43.70;;;;;;5023134;28;20391;-77
2022/03/23 12:05:39;;;;;;;;;;;18.30;41.70;;;;;;5017649;28;20012;-75
2022/03/23 12:08:06;;;;;;;;;;;18.20;40.70;;;;;;5031947;28;19929;-76
2022/03/23 12:10:33;;;;;;;;;;;18.20;41.60;;;;;;5024308;28;20385;-76
2022/03/23 12:12:59;;;;;;;;;;;18.20;41.20;;;;;;5004437;28;20376;-79
2022/03/23 12:15:26;;;;;;;;;;;18.20;42.30;;;;;;5033486;28;20411;-74
2022/03/23 12:17:53;;;;;;;;;;;18.10;41.60;;;;;;5033185;28;19972;-76
2022/03/23 12:20:20;;;;;;;;;;;18.20;42.20;;;;;;5022509;28;19925;-76
2022/03/23 12:22:47;;;;;;;;;;;18.30;43.60;;;;;;5027594;28;20011;-77
2022/03/23 12:25:14;;;;;;;;;;;18.30;43.90;;;;;;5028098;28;19933;-76
2022/03/23 12:27:40;;;;;;;;;;;18.20;42.00;;;;;;5027452;28;19935;-76
2022/03/23 12:30:07;;;;;;;;;;;18.20;41.90;;;;;;5032799;28;19929;-76
2022/03/23 12:32:33;;;;;;;;;;;18.30;44.60;;;;;;5013632;28;19925;-77
2022/03/23 12:35:00;;;;;;;;;;;18.40;42.80;;;;;;5017437;28;19926;-80
2022/03/23 12:37:26;;;;;;;;;;;18.30;41.90;;;;;;5026258;28;19936;-77
2022/03/23 12:39:53;;;;;;;;;;;18.40;44.00;;;;;;5025480;28;19933;-77
2022/03/23 12:42:20;;;;;;;;;;;18.40;43.70;;;;;;5013283;28;19925;-75
2022/03/23 12:44:46;;;;;;;;;;;18.50;43.60;;;;;;5027132;28;19929;-75
2022/03/23 12:47:13;;;;;;;;;;;18.30;42.40;;;;;;5023975;28;20519;-75
2022/03/23 12:57:53;;;;;;;;;;;18.40;44.20;;;;;;5023035;28;19925;-76
2022/03/23 13:00:26;;;;;;;;;;;18.50;44.30;;;;;;5019398;28;20539;-76
2022/03/23 13:02:52;;;;;;;;;;;18.40;43.20;;;;;;5032128;28;19929;-77
2022/03/23 13:05:19;;;;;;;;;;;18.40;43.90;;;;;;5000696;28;19968;-76
2022/03/23 13:07:46;;;;;;;;;;;18.40;42.50;;;;;;5031562;28;19925;-76
2022/03/23 13:10:12;;;;;;;;;;;18.30;44.40;;;;;;5012757;28;19925;-76
2022/03/23 13:12:39;;;;;;;;;;;18.50;46.00;;;;;;5030820;28;19925;-78
2022/03/23 13:15:05;;;;;;;;;;;18.60;43.70;;;;;;5029187;28;20323;-77
2022/03/23 13:17:32;;;;;;;;;;;18.40;43.00;;;;;;5023671;28;20269;-75
2022/03/23 13:19:58;;;;;;;;;;;18.40;43.60;;;;;;5023472;28;19925;-75
2022/03/23 13:22:25;;;;;;;;;;;18.50;44.00;;;;;;5029306;28;19925;-77
2022/03/23 13:24:52;;;;;;;;;;;18.40;45.10;;;;;;5029498;28;20372;-79
2022/03/23 13:27:19;;;;;;;;;;;18.50;43.40;;;;;;5024079;28;20291;-77
2022/03/23 13:29:46;;;;;;;;;;;18.30;43.20;;;;;;5028742;28;20753;-77
2022/03/23 13:32:13;;;;;;;;;;;18.40;45.20;;;;;;5011289;28;19936;-76
2022/03/23 13:34:40;;;;;;;;;;;18.30;44.30;;;;;;5018348;28;19925;-77
2022/03/23 13:37:06;;;;;;;;;;;18.30;44.10;;;;;;5024162;28;20205;-81
2022/03/23 13:39:33;;;;;;;;;;;18.20;45.30;;;;;;5021597;28;19925;-77
2022/03/23 13:44:55;;;;;;;;;;;18.30;45.10;;;;;;5020577;28;19929;-77
2022/03/23 13:47:22;;;;;;;;;;;18.40;46.30;;;;;;5025258;28;19925;-78
2022/03/23 13:49:48;;;;;;;;;;;18.30;45.10;;;;;;5027393;28;19926;-78
2022/03/23 13:52:15;;;;;;;;;;;18.30;45.30;;;;;;5022305;28;20348;-76
2022/03/23 13:54:42;;;;;;;;;;;18.30;46.60;;;;;;5005582;28;19933;-76
2022/03/23 13:57:09;;;;;;;;;;;18.30;45.20;;;;;;5022840;28;19925;-82
2022/03/23 13:59:36;;;;;;;;;;;18.30;45.60;;;;;;5009677;28;19975;-77
2022/03/23 14:02:02;;;;;;;;;;;18.30;45.00;;;;;;5027210;28;19925;-77
2022/03/23 14:04:29;;;;;;;;;;;18.30;44.90;;;;;;5022602;28;19976;-77
2022/03/23 14:06:57;;;;;;;;;;;18.20;45.50;;;;;;5017714;28;20293;-77
2022/03/23 14:09:23;;;;;;;;;;;18.30;45.30;;;;;;5015110;28;19926;-77
2022/03/23 14:11:59;;;;;;;;;;;18.10;45.40;;;;;;5030978;28;20024;-76
2022/03/23 14:14:27;;;;;;;;;;;18.10;45.70;;;;;;5021995;28;19925;-77
2022/03/23 14:16:53;;;;;;;;;;;18.10;46.30;;;;;;5026510;28;19925;-77
2022/03/23 14:19:20;;;;;;;;;;;18.10;45.70;;;;;;5023121;28;19929;-78
2022/03/23 14:21:46;;;;;;;;;;;18.00;45.00;;;;;;5019083;28;20373;-78
2022/03/23 14:24:13;;;;;;;;;;;18.00;46.60;;;;;;5014553;28;20395;-77
2022/03/23 14:26:40;;;;;;;;;;;18.00;46.80;;;;;;5023116;28;19964;-77
2022/03/23 14:29:06;;;;;;;;;;;18.00;45.10;;;;;;5017790;28;20373;-76
2022/03/23 14:31:33;;;;;;;;;;;18.00;46.40;;;;;;5004894;28;19925;-77
2022/03/23 14:33:59;;;;;;;;;;;18.00;45.70;;;;;;5020143;28;19933;-77
2022/03/23 14:36:26;;;;;;;;;;;18.10;45.50;;;;;;5008610;28;19932;-77
2022/03/23 14:38:52;;;;;;;;;;;18.00;45.40;;;;;;5011210;28;19925;-76
2022/03/23 14:41:19;;;;;;;;;;;18.00;44.60;;;;;;5018964;28;19926;-82
2022/03/23 14:43:45;;;;;;;;;;;17.90;45.40;;;;;;5023090;28;19925;-78
2022/03/23 14:46:12;;;;;;;;;;;17.80;43.30;;;;;;5031832;28;19936;-81
2022/03/23 14:48:38;;;;;;;;;;;17.90;44.60;;;;;;5022984;28;19936;-76
2022/03/23 14:51:05;;;;;;;;;;;18.20;44.00;;;;;;5027975;28;19925;-76